createdAt,value
2022-08-16T18:46:05.784Z,5.70
2022-08-16T18:48:33.986Z,4.80
2022-08-16T18:51:09.126Z,5.20
2022-08-16T18:53:39.709Z,5.10
2022-08-16T18:56:07.896Z,4.90
2022-08-16T18:58:36.104Z,4.70
2022-08-16T19:01:04.196Z,5.40
2022-08-16T19:03:33.077Z,4.70
2022-08-16T19:06:04.793Z,5.40
2022-08-16T19:08:37.049Z,5.60
2022-08-16T19:11:07.605Z,5.10
2022-08-16T19:13:36.455Z,4.90
2022-08-16T19:16:05.117Z,4.90
2022-08-16T19:18:36.344Z,4.70
2022-08-16T19:21:06.741Z,4.40
2022-08-16T19:23:37.394Z,4.30
2022-08-16T19:26:24.511Z,4.50
2022-08-16T19:28:58.942Z,4.30
2022-08-16T19:31:31.212Z,4.40
2022-08-16T19:34:00.511Z,4.30
2022-08-16T19:36:35.017Z,4.20
2022-08-16T19:39:10.861Z,4.50
2022-08-16T19:41:42.787Z,3.90
2022-08-16T19:44:11.401Z,4.00
2022-08-16T19:46:44.993Z,5.10
2022-08-16T19:49:16.200Z,4.40
2022-08-16T19:51:46.957Z,4.60
2022-08-16T19:54:16.138Z,4.90
2022-08-16T19:56:44.162Z,4.50
2022-08-16T19:59:39.435Z,4.50
2022-08-16T20:02:02.508Z,3.90
2022-08-16T20:04:31.003Z,4.80
2022-08-16T20:06:59.140Z,4.50
2022-08-16T20:09:27.287Z,4.30
2022-08-16T20:11:55.534Z,4.20
2022-08-16T20:14:25.983Z,3.90
2022-08-16T20:16:59.779Z,4.80
2022-08-16T20:19:40.031Z,4.60
2022-08-16T20:22:49.654Z,4.70
2022-08-16T20:25:16.246Z,4.50
2022-08-16T20:27:45.684Z,4.30
2022-08-16T20:30:16.000Z,4.40
2022-08-16T20:32:45.509Z,4.90
2022-08-16T20:35:17.705Z,4.90
2022-08-16T20:37:47.566Z,5.50
2022-08-16T20:40:34.330Z,7.20
2022-08-16T20:43:09.376Z,5.60
2022-08-16T20:45:39.635Z,5.80
2022-08-16T20:48:08.208Z,6.10
2022-08-16T20:50:37.419Z,5.90
2022-08-16T20:53:06.494Z,5.50
2022-08-16T20:55:36.523Z,5.00
2022-08-16T20:58:04.619Z,5.20
2022-08-16T21:00:33.757Z,5.20
2022-08-16T21:03:11.008Z,5.40
2022-08-16T21:05:39.253Z,5.50
2022-08-16T21:08:50.245Z,5.30
2022-08-16T21:10:56.973Z,4.90
2022-08-16T21:13:25.874Z,5.30
2022-08-16T21:15:54.011Z,5.70
2022-08-16T21:18:22.195Z,5.50
2022-08-16T21:20:50.851Z,5.90
2022-08-16T21:23:19.088Z,5.50
2022-08-16T21:25:57.947Z,5.30
2022-08-16T21:28:40.921Z,5.50
2022-08-16T21:31:12.368Z,5.50
2022-08-16T21:33:41.057Z,6.30
2022-08-16T21:36:10.262Z,6.30
2022-08-16T21:38:39.248Z,6.30
2022-08-16T21:41:10.693Z,6.00
2022-08-16T21:43:39.115Z,5.80
2022-08-16T21:46:08.614Z,6.00
2022-08-16T21:48:40.702Z,6.00
2022-08-16T21:51:14.559Z,5.60
2022-08-16T21:53:44.034Z,6.00
2022-08-16T21:56:16.703Z,6.10
2022-08-16T21:58:52.441Z,6.70
2022-08-16T22:01:23.287Z,6.40
2022-08-16T22:04:35.938Z,6.30
2022-08-16T22:06:41.669Z,6.20
2022-08-16T22:09:11.980Z,6.00
2022-08-16T22:11:40.192Z,5.80
2022-08-16T22:14:08.608Z,6.40
2022-08-16T22:16:40.020Z,6.10
2022-08-16T22:19:09.214Z,5.80
2022-08-16T22:21:37.481Z,5.70
2022-08-16T22:24:06.193Z,6.00
2022-08-16T22:26:42.322Z,6.10
2022-08-16T22:29:14.033Z,6.10
2022-08-16T22:31:44.028Z,6.20
2022-08-16T22:34:13.948Z,6.30
2022-08-16T22:36:42.605Z,6.20
2022-08-16T22:39:13.650Z,6.30
2022-08-16T22:41:43.380Z,7.10
2022-08-16T22:44:12.940Z,6.40
2022-08-16T22:46:41.444Z,7.40
2022-08-16T22:49:10.801Z,6.70
2022-08-16T22:51:40.041Z,6.90
2022-08-16T22:54:45.942Z,6.80
2022-08-16T22:56:57.485Z,7.20
2022-08-16T22:59:25.560Z,8.60
2022-08-16T23:01:53.786Z,7.40
2022-08-16T23:04:22.488Z,7.70
2022-08-16T23:06:51.381Z,7.80
2022-08-16T23:09:20.010Z,7.30
2022-08-16T23:11:48.168Z,7.00
2022-08-16T23:14:16.475Z,7.80
2022-08-16T23:16:47.488Z,8.30
2022-08-16T23:19:16.905Z,7.30
2022-08-16T23:21:47.192Z,7.70
2022-08-16T23:24:20.270Z,7.00
2022-08-16T23:26:49.389Z,7.30
2022-08-16T23:29:23.973Z,7.10
2022-08-16T23:32:08.732Z,7.50
2022-08-16T23:34:36.865Z,7.10
2022-08-16T23:37:06.783Z,6.80
2022-08-16T23:39:35.963Z,7.80
2022-08-16T23:42:14.769Z,7.30
2022-08-16T23:44:57.875Z,8.50
2022-08-16T23:47:27.465Z,7.90
2022-08-16T23:50:00.050Z,8.20
2022-08-16T23:52:53.083Z,8.20
2022-08-16T23:55:18.885Z,8.30
2022-08-16T23:57:47.530Z,8.50
